sensor_id;sensor_type;location;lat;lon;timestamp;temperature;humidity
54540;SHT30;40438;52.992;18.604;2023-06-14T00:00:02;15.12;78.45
54540;SHT30;40438;52.992;18.604;2023-06-14T00:02:30;15.17;78.44
54540;SHT30;40438;52.992;18.604;2023-06-14T00:04:56;15.28;78.70
54540;SHT30;40438;52.992;18.604;2023-06-14T00:07:34;15.34;78.36
54540;SHT30;40438;52.992;18.604;2023-06-14T00:10:00;15.32;78.39
54540;SHT30;40438;52.992;18.604;2023-06-14T00:12:26;15.35;78.70
54540;SHT30;40438;52.992;18.604;2023-06-14T00:14:51;15.38;78.80
54540;SHT30;40438;52.992;18.604;2023-06-14T00:17:17;15.35;79.26
54540;SHT30;40438;52.992;18.604;2023-06-14T00:19:43;15.34;79.34
54540;SHT30;40438;52.992;18.604;2023-06-14T00:22:09;15.31;80.08
54540;SHT30;40438;52.992;18.604;2023-06-14T00:24:36;15.28;80.04
54540;SHT30;40438;52.992;18.604;2023-06-14T00:27:02;15.28;80.02
54540;SHT30;40438;52.992;18.604;2023-06-14T00:29:29;15.28;79.70
54540;SHT30;40438;52.992;18.604;2023-06-14T00:31:55;15.27;80.00
54540;SHT30;40438;52.992;18.604;2023-06-14T00:34:21;15.26;80.25
54540;SHT30;40438;52.992;18.604;2023-06-14T00:36:47;15.27;80.70
54540;SHT30;40438;52.992;18.604;2023-06-14T00:39:14;15.26;80.75
54540;SHT30;40438;52.992;18.604;2023-06-14T00:41:41;15.27;80.89
54540;SHT30;40438;52.992;18.604;2023-06-14T00:44:06;15.27;80.90
54540;SHT30;40438;52.992;18.604;2023-06-14T00:46:34;15.31;80.73
54540;SHT30;40438;52.992;18.604;2023-06-14T00:49:00;15.34;80.55
54540;SHT30;40438;52.992;18.604;2023-06-14T00:51:26;15.32;80.48
54540;SHT30;40438;52.992;18.604;2023-06-14T00:53:52;15.31;80.62
54540;SHT30;40438;52.992;18.604;2023-06-14T00:56:18;15.27;80.75
54540;SHT30;40438;52.992;18.604;2023-06-14T00:58:45;15.26;80.66
54540;SHT30;40438;52.992;18.604;2023-06-14T01:01:11;15.18;80.65
54540;SHT30;40438;52.992;18.604;2023-06-14T01:03:37;15.14;81.15
54540;SHT30;40438;52.992;18.604;2023-06-14T01:06:11;15.14;81.07
54540;SHT30;40438;52.992;18.604;2023-06-14T01:08:45;15.14;81.17
54540;SHT30;40438;52.992;18.604;2023-06-14T01:11:18;15.12;81.28
54540;SHT30;40438;52.992;18.604;2023-06-14T01:13:49;15.14;81.39
54540;SHT30;40438;52.992;18.604;2023-06-14T01:16:15;15.12;81.63
54540;SHT30;40438;52.992;18.604;2023-06-14T01:18:43;15.10;81.75
54540;SHT30;40438;52.992;18.604;2023-06-14T01:21:20;15.08;82.06
54540;SHT30;40438;52.992;18.604;2023-06-14T01:23:49;15.07;81.98
54540;SHT30;40438;52.992;18.604;2023-06-14T01:26:15;15.04;82.24
54540;SHT30;40438;52.992;18.604;2023-06-14T01:28:41;15.06;82.31
54540;SHT30;40438;52.992;18.604;2023-06-14T01:31:07;15.06;82.46
54540;SHT30;40438;52.992;18.604;2023-06-14T01:33:35;15.10;82.45
54540;SHT30;40438;52.992;18.604;2023-06-14T01:36:02;15.06;82.43
54540;SHT30;40438;52.992;18.604;2023-06-14T01:38:30;15.08;82.61
54540;SHT30;40438;52.992;18.604;2023-06-14T01:41:00;15.10;82.54
54540;SHT30;40438;52.992;18.604;2023-06-14T01:43:26;15.17;82.45
54540;SHT30;40438;52.992;18.604;2023-06-14T01:45:54;15.22;82.07
54540;SHT30;40438;52.992;18.604;2023-06-14T01:48:20;15.20;82.06
54540;SHT30;40438;52.992;18.604;2023-06-14T01:50:48;15.18;82.38
54540;SHT30;40438;52.992;18.604;2023-06-14T01:53:14;15.14;82.22
54540;SHT30;40438;52.992;18.604;2023-06-14T01:55:39;15.14;82.16
54540;SHT30;40438;52.992;18.604;2023-06-14T01:58:10;15.17;82.15
54540;SHT30;40438;52.992;18.604;2023-06-14T02:00:35;15.15;82.00
54540;SHT30;40438;52.992;18.604;2023-06-14T02:03:02;15.14;81.71
54540;SHT30;40438;52.992;18.604;2023-06-14T02:05:27;15.14;81.44
54540;SHT30;40438;52.992;18.604;2023-06-14T02:07:53;15.15;81.34
54540;SHT30;40438;52.992;18.604;2023-06-14T02:10:20;15.14;81.49
54540;SHT30;40438;52.992;18.604;2023-06-14T02:12:46;15.14;81.72
54540;SHT30;40438;52.992;18.604;2023-06-14T02:15:14;15.14;82.01
54540;SHT30;40438;52.992;18.604;2023-06-14T02:17:40;15.12;82.12
54540;SHT30;40438;52.992;18.604;2023-06-14T02:20:07;15.10;82.21
54540;SHT30;40438;52.992;18.604;2023-06-14T02:22:33;15.07;82.13
54540;SHT30;40438;52.992;18.604;2023-06-14T02:24:59;15.07;82.04
54540;SHT30;40438;52.992;18.604;2023-06-14T02:27:25;15.03;82.05
54540;SHT30;40438;52.992;18.604;2023-06-14T02:29:50;15.04;82.02
54540;SHT30;40438;52.992;18.604;2023-06-14T02:32:18;15.01;82.12
54540;SHT30;40438;52.992;18.604;2023-06-14T02:34:45;15.01;82.30
54540;SHT30;40438;52.992;18.604;2023-06-14T02:37:10;15.00;82.20
54540;SHT30;40438;52.992;18.604;2023-06-14T02:39:36;15.00;82.04
54540;SHT30;40438;52.992;18.604;2023-06-14T02:42:03;15.01;82.00
54540;SHT30;40438;52.992;18.604;2023-06-14T02:44:29;15.03;82.04
54540;SHT30;40438;52.992;18.604;2023-06-14T02:46:55;15.01;82.05
54540;SHT30;40438;52.992;18.604;2023-06-14T02:49:22;14.99;82.06
54540;SHT30;40438;52.992;18.604;2023-06-14T02:51:48;15.03;81.94
54540;SHT30;40438;52.992;18.604;2023-06-14T02:54:14;15.01;81.91
54540;SHT30;40438;52.992;18.604;2023-06-14T02:56:40;14.97;82.05
54540;SHT30;40438;52.992;18.604;2023-06-14T02:59:05;15.00;82.07
54540;SHT30;40438;52.992;18.604;2023-06-14T03:01:32;14.93;82.05
54540;SHT30;40438;52.992;18.604;2023-06-14T03:03:57;14.96;82.04
54540;SHT30;40438;52.992;18.604;2023-06-14T03:06:25;14.97;82.04
54540;SHT30;40438;52.992;18.604;2023-06-14T03:08:52;14.99;81.86
54540;SHT30;40438;52.992;18.604;2023-06-14T03:11:17;14.94;82.03
54540;SHT30;40438;52.992;18.604;2023-06-14T03:13:44;15.00;81.94
54540;SHT30;40438;52.992;18.604;2023-06-14T03:16:10;14.99;82.01
54540;SHT30;40438;52.992;18.604;2023-06-14T03:18:38;15.00;81.96
54540;SHT30;40438;52.992;18.604;2023-06-14T03:21:05;14.99;81.86
54540;SHT30;40438;52.992;18.604;2023-06-14T03:23:33;15.03;81.93
54540;SHT30;40438;52.992;18.604;2023-06-14T03:26:01;15.06;81.87
54540;SHT30;40438;52.992;18.604;2023-06-14T03:28:26;15.08;81.76
54540;SHT30;40438;52.992;18.604;2023-06-14T03:30:53;15.08;81.91
54540;SHT30;40438;52.992;18.604;2023-06-14T03:33:20;15.08;82.23
54540;SHT30;40438;52.992;18.604;2023-06-14T03:35:46;15.07;82.51
54540;SHT30;40438;52.992;18.604;2023-06-14T03:38:11;15.01;82.66
54540;SHT30;40438;52.992;18.604;2023-06-14T03:40:39;15.01;82.86
54540;SHT30;40438;52.992;18.604;2023-06-14T03:43:06;14.93;82.94
54540;SHT30;40438;52.992;18.604;2023-06-14T03:45:32;14.91;82.96
54540;SHT30;40438;52.992;18.604;2023-06-14T03:47:59;14.86;83.16
54540;SHT30;40438;52.992;18.604;2023-06-14T03:50:26;14.81;83.18
54540;SHT30;40438;52.992;18.604;2023-06-14T03:52:52;14.70;83.46
54540;SHT30;40438;52.992;18.604;2023-06-14T03:55:19;14.65;83.52
54540;SHT30;40438;52.992;18.604;2023-06-14T03:57:46;14.70;83.61
54540;SHT30;40438;52.992;18.604;2023-06-14T04:00:16;14.75;83.74
54540;SHT30;40438;52.992;18.604;2023-06-14T04:02:43;14.76;83.84
54540;SHT30;40438;52.992;18.604;2023-06-14T04:05:10;14.75;83.84
54540;SHT30;40438;52.992;18.604;2023-06-14T04:07:42;14.76;84.05
54540;SHT30;40438;52.992;18.604;2023-06-14T04:10:09;14.81;83.99
54540;SHT30;40438;52.992;18.604;2023-06-14T04:12:34;14.84;84.12
54540;SHT30;40438;52.992;18.604;2023-06-14T04:15:02;14.86;84.10
54540;SHT30;40438;52.992;18.604;2023-06-14T04:17:29;14.86;83.99
54540;SHT30;40438;52.992;18.604;2023-06-14T04:19:55;14.79;84.41
54540;SHT30;40438;52.992;18.604;2023-06-14T04:22:21;14.81;84.28
54540;SHT30;40438;52.992;18.604;2023-06-14T04:24:47;14.76;84.31
54540;SHT30;40438;52.992;18.604;2023-06-14T04:27:13;14.73;84.62
54540;SHT30;40438;52.992;18.604;2023-06-14T04:29:38;14.76;84.71
54540;SHT30;40438;52.992;18.604;2023-06-14T04:32:10;14.72;84.76
54540;SHT30;40438;52.992;18.604;2023-06-14T04:34:37;14.73;84.39
54540;SHT30;40438;52.992;18.604;2023-06-14T04:37:04;14.79;84.13
54540;SHT30;40438;52.992;18.604;2023-06-14T04:39:34;14.87;83.84
54540;SHT30;40438;52.992;18.604;2023-06-14T04:42:01;14.93;83.78
54540;SHT30;40438;52.992;18.604;2023-06-14T04:44:28;14.99;83.73
54540;SHT30;40438;52.992;18.604;2023-06-14T04:46:54;15.06;83.73
54540;SHT30;40438;52.992;18.604;2023-06-14T04:49:23;15.14;83.81
54540;SHT30;40438;52.992;18.604;2023-06-14T04:51:49;15.20;83.72
54540;SHT30;40438;52.992;18.604;2023-06-14T04:54:16;15.28;83.53
54540;SHT30;40438;52.992;18.604;2023-06-14T04:56:42;15.34;82.69
54540;SHT30;40438;52.992;18.604;2023-06-14T04:59:09;15.39;82.08
54540;SHT30;40438;52.992;18.604;2023-06-14T05:01:35;15.44;81.93
54540;SHT30;40438;52.992;18.604;2023-06-14T05:04:01;15.51;81.71
54540;SHT30;40438;52.992;18.604;2023-06-14T05:06:28;15.57;81.25
54540;SHT30;40438;52.992;18.604;2023-06-14T05:08:54;15.61;80.54
54540;SHT30;40438;52.992;18.604;2023-06-14T05:11:20;15.61;79.56
54540;SHT30;40438;52.992;18.604;2023-06-14T05:13:46;15.66;79.74
54540;SHT30;40438;52.992;18.604;2023-06-14T05:16:13;15.70;79.15
54540;SHT30;40438;52.992;18.604;2023-06-14T05:18:38;15.69;79.01
54540;SHT30;40438;52.992;18.604;2023-06-14T05:21:04;15.70;78.50
54540;SHT30;40438;52.992;18.604;2023-06-14T05:23:31;15.72;78.69
54540;SHT30;40438;52.992;18.604;2023-06-14T05:25:57;15.70;78.62
54540;SHT30;40438;52.992;18.604;2023-06-14T05:28:23;15.79;78.75
54540;SHT30;40438;52.992;18.604;2023-06-14T05:30:49;15.83;78.53
54540;SHT30;40438;52.992;18.604;2023-06-14T05:33:15;15.87;78.68
54540;SHT30;40438;52.992;18.604;2023-06-14T05:35:41;15.87;79.01
54540;SHT30;40438;52.992;18.604;2023-06-14T05:38:06;15.91;78.71
54540;SHT30;40438;52.992;18.604;2023-06-14T05:40:34;15.91;77.54
54540;SHT30;40438;52.992;18.604;2023-06-14T05:42:59;15.96;77.70
54540;SHT30;40438;52.992;18.604;2023-06-14T05:45:25;16.01;77.90
54540;SHT30;40438;52.992;18.604;2023-06-14T05:47:51;16.00;77.25
54540;SHT30;40438;52.992;18.604;2023-06-14T05:50:17;16.09;77.14
54540;SHT30;40438;52.992;18.604;2023-06-14T05:52:43;16.12;77.21
54540;SHT30;40438;52.992;18.604;2023-06-14T05:55:09;16.13;77.68
54540;SHT30;40438;52.992;18.604;2023-06-14T05:57:36;16.17;78.03
54540;SHT30;40438;52.992;18.604;2023-06-14T06:00:03;16.18;78.19
54540;SHT30;40438;52.992;18.604;2023-06-14T06:02:38;16.23;78.08
54540;SHT30;40438;52.992;18.604;2023-06-14T06:05:04;16.27;77.87
54540;SHT30;40438;52.992;18.604;2023-06-14T06:07:30;16.34;77.73
54540;SHT30;40438;52.992;18.604;2023-06-14T06:09:55;16.38;77.48
54540;SHT30;40438;52.992;18.604;2023-06-14T06:12:21;16.45;77.36
54540;SHT30;40438;52.992;18.604;2023-06-14T06:14:48;16.49;77.38
54540;SHT30;40438;52.992;18.604;2023-06-14T06:17:14;16.52;77.41
54540;SHT30;40438;52.992;18.604;2023-06-14T06:19:40;16.58;76.99
54540;SHT30;40438;52.992;18.604;2023-06-14T06:22:06;16.61;76.53
54540;SHT30;40438;52.992;18.604;2023-06-14T06:24:32;16.69;76.83
54540;SHT30;40438;52.992;18.604;2023-06-14T06:26:57;16.72;76.68
54540;SHT30;40438;52.992;18.604;2023-06-14T06:29:23;16.72;76.56
54540;SHT30;40438;52.992;18.604;2023-06-14T06:31:50;16.80;76.13
54540;SHT30;40438;52.992;18.604;2023-06-14T06:34:16;16.85;75.80
54540;SHT30;40438;52.992;18.604;2023-06-14T06:36:42;16.85;75.22
54540;SHT30;40438;52.992;18.604;2023-06-14T06:39:08;16.86;75.21
54540;SHT30;40438;52.992;18.604;2023-06-14T06:41:33;16.84;75.01
54540;SHT30;40438;52.992;18.604;2023-06-14T06:43:59;16.85;75.09
54540;SHT30;40438;52.992;18.604;2023-06-14T06:46:28;16.85;74.71
54540;SHT30;40438;52.992;18.604;2023-06-14T06:48:55;16.80;74.50
54540;SHT30;40438;52.992;18.604;2023-06-14T06:51:21;16.79;74.32
54540;SHT30;40438;52.992;18.604;2023-06-14T06:53:52;16.79;74.40
54540;SHT30;40438;52.992;18.604;2023-06-14T06:56:18;16.79;74.39
54540;SHT30;40438;52.992;18.604;2023-06-14T06:58:44;16.78;74.04
54540;SHT30;40438;52.992;18.604;2023-06-14T07:01:09;16.79;73.84
54540;SHT30;40438;52.992;18.604;2023-06-14T07:03:35;16.80;73.78
54540;SHT30;40438;52.992;18.604;2023-06-14T07:06:03;16.85;74.04
54540;SHT30;40438;52.992;18.604;2023-06-14T07:08:29;16.89;73.97
54540;SHT30;40438;52.992;18.604;2023-06-14T07:10:55;16.94;73.69
54540;SHT30;40438;52.992;18.604;2023-06-14T07:13:22;16.96;73.81
54540;SHT30;40438;52.992;18.604;2023-06-14T07:15:48;17.06;73.92
54540;SHT30;40438;52.992;18.604;2023-06-14T07:18:13;17.10;73.59
54540;SHT30;40438;52.992;18.604;2023-06-14T07:20:39;17.17;72.87
54540;SHT30;40438;52.992;18.604;2023-06-14T07:23:06;17.27;72.04
54540;SHT30;40438;52.992;18.604;2023-06-14T07:25:32;17.40;71.49
54540;SHT30;40438;52.992;18.604;2023-06-14T07:27:58;17.38;70.91
54540;SHT30;40438;52.992;18.604;2023-06-14T07:30:24;17.48;71.15
54540;SHT30;40438;52.992;18.604;2023-06-14T07:32:49;17.63;71.18
54540;SHT30;40438;52.992;18.604;2023-06-14T07:35:15;17.75;71.30
54540;SHT30;40438;52.992;18.604;2023-06-14T07:37:41;17.85;70.99
54540;SHT30;40438;52.992;18.604;2023-06-14T07:40:09;17.94;70.77
54540;SHT30;40438;52.992;18.604;2023-06-14T07:42:36;18.05;70.35
54540;SHT30;40438;52.992;18.604;2023-06-14T07:45:01;18.12;69.76
54540;SHT30;40438;52.992;18.604;2023-06-14T07:47:27;18.15;69.86
54540;SHT30;40438;52.992;18.604;2023-06-14T07:49:53;18.17;69.79
54540;SHT30;40438;52.992;18.604;2023-06-14T07:52:19;18.23;69.84
54540;SHT30;40438;52.992;18.604;2023-06-14T07:54:45;18.26;69.81
54540;SHT30;40438;52.992;18.604;2023-06-14T07:57:12;18.32;69.82
54540;SHT30;40438;52.992;18.604;2023-06-14T07:59:38;18.46;69.37
54540;SHT30;40438;52.992;18.604;2023-06-14T08:02:04;18.49;68.79
54540;SHT30;40438;52.992;18.604;2023-06-14T08:04:30;18.53;68.62
54540;SHT30;40438;52.992;18.604;2023-06-14T08:06:56;18.53;67.92
54540;SHT30;40438;52.992;18.604;2023-06-14T08:09:22;18.50;67.35
54540;SHT30;40438;52.992;18.604;2023-06-14T08:11:48;18.49;67.50
54540;SHT30;40438;52.992;18.604;2023-06-14T08:14:15;18.47;67.90
54540;SHT30;40438;52.992;18.604;2023-06-14T08:16:41;18.47;68.28
54540;SHT30;40438;52.992;18.604;2023-06-14T08:19:07;18.46;68.41
54540;SHT30;40438;52.992;18.604;2023-06-14T08:21:33;18.46;68.27
54540;SHT30;40438;52.992;18.604;2023-06-14T08:23:59;18.49;68.24
54540;SHT30;40438;52.992;18.604;2023-06-14T08:26:25;18.50;67.89
54540;SHT30;40438;52.992;18.604;2023-06-14T08:28:50;18.56;67.47
54540;SHT30;40438;52.992;18.604;2023-06-14T08:31:18;18.60;67.43
54540;SHT30;40438;52.992;18.604;2023-06-14T08:33:43;18.61;67.43
54540;SHT30;40438;52.992;18.604;2023-06-14T08:36:09;18.61;67.23
54540;SHT30;40438;52.992;18.604;2023-06-14T08:38:35;18.64;67.30
54540;SHT30;40438;52.992;18.604;2023-06-14T08:41:01;18.60;67.25
54540;SHT30;40438;52.992;18.604;2023-06-14T08:43:28;18.56;67.45
54540;SHT30;40438;52.992;18.604;2023-06-14T08:45:58;18.57;67.47
54540;SHT30;40438;52.992;18.604;2023-06-14T08:48:26;18.56;67.92
54540;SHT30;40438;52.992;18.604;2023-06-14T08:50:54;18.57;68.24
54540;SHT30;40438;52.992;18.604;2023-06-14T08:53:21;18.63;68.85
54540;SHT30;40438;52.992;18.604;2023-06-14T08:55:47;18.67;69.02
54540;SHT30;40438;52.992;18.604;2023-06-14T08:58:13;18.70;69.25
54540;SHT30;40438;52.992;18.604;2023-06-14T09:00:39;18.80;68.65
54540;SHT30;40438;52.992;18.604;2023-06-14T09:03:05;18.85;68.54
54540;SHT30;40438;52.992;18.604;2023-06-14T09:05:32;18.98;68.52
54540;SHT30;40438;52.992;18.604;2023-06-14T09:07:58;19.08;68.29
54540;SHT30;40438;52.992;18.604;2023-06-14T09:10:24;19.19;67.92
54540;SHT30;40438;52.992;18.604;2023-06-14T09:12:51;19.15;66.73
54540;SHT30;40438;52.992;18.604;2023-06-14T09:15:17;19.28;67.21
54540;SHT30;40438;52.992;18.604;2023-06-14T09:17:43;19.45;66.96
54540;SHT30;40438;52.992;18.604;2023-06-14T09:20:09;19.60;65.96
54540;SHT30;40438;52.992;18.604;2023-06-14T09:22:37;19.73;65.61
54540;SHT30;40438;52.992;18.604;2023-06-14T09:25:03;19.91;65.54
54540;SHT30;40438;52.992;18.604;2023-06-14T09:27:29;20.11;64.97
54540;SHT30;40438;52.992;18.604;2023-06-14T09:29:55;20.24;64.68
54540;SHT30;40438;52.992;18.604;2023-06-14T09:32:21;20.39;64.97
54540;SHT30;40438;52.992;18.604;2023-06-14T09:34:47;20.53;64.43
54540;SHT30;40438;52.992;18.604;2023-06-14T09:37:13;20.55;63.94
54540;SHT30;40438;52.992;18.604;2023-06-14T09:39:52;20.62;63.66
54540;SHT30;40438;52.992;18.604;2023-06-14T09:42:19;20.59;63.62
54540;SHT30;40438;52.992;18.604;2023-06-14T09:44:46;20.62;63.06
54540;SHT30;40438;52.992;18.604;2023-06-14T09:47:13;20.64;62.95
54540;SHT30;40438;52.992;18.604;2023-06-14T09:49:40;20.59;62.66
54540;SHT30;40438;52.992;18.604;2023-06-14T09:52:07;20.55;62.72
54540;SHT30;40438;52.992;18.604;2023-06-14T09:54:38;20.56;62.93
54540;SHT30;40438;52.992;18.604;2023-06-14T09:57:07;20.57;63.20
54540;SHT30;40438;52.992;18.604;2023-06-14T09:59:35;20.55;63.09
54540;SHT30;40438;52.992;18.604;2023-06-14T10:02:06;20.63;62.93
54540;SHT30;40438;52.992;18.604;2023-06-14T10:04:34;20.68;63.18
54540;SHT30;40438;52.992;18.604;2023-06-14T10:07:00;20.72;61.25
54540;SHT30;40438;52.992;18.604;2023-06-14T10:09:28;20.72;61.28
54540;SHT30;40438;52.992;18.604;2023-06-14T10:11:53;20.83;60.93
54540;SHT30;40438;52.992;18.604;2023-06-14T10:14:22;20.90;59.98
54540;SHT30;40438;52.992;18.604;2023-06-14T10:16:55;21.06;59.64
54540;SHT30;40438;52.992;18.604;2023-06-14T10:19:24;21.22;58.49
54540;SHT30;40438;52.992;18.604;2023-06-14T10:21:58;21.37;58.61
54540;SHT30;40438;52.992;18.604;2023-06-14T10:24:29;21.47;57.39
54540;SHT30;40438;52.992;18.604;2023-06-14T10:26:57;21.52;57.15
54540;SHT30;40438;52.992;18.604;2023-06-14T10:29:25;21.71;56.93
54540;SHT30;40438;52.992;18.604;2023-06-14T10:31:55;21.80;56.29
54540;SHT30;40438;52.992;18.604;2023-06-14T10:34:22;22.05;55.92
54540;SHT30;40438;52.992;18.604;2023-06-14T10:37:00;22.48;54.71
54540;SHT30;40438;52.992;18.604;2023-06-14T10:39:26;22.84;53.71
54540;SHT30;40438;52.992;18.604;2023-06-14T10:41:53;23.14;52.91
54540;SHT30;40438;52.992;18.604;2023-06-14T10:44:49;23.27;51.57
54540;SHT30;40438;52.992;18.604;2023-06-14T10:47:26;23.36;51.34
54540;SHT30;40438;52.992;18.604;2023-06-14T10:49:53;23.26;51.45
54540;SHT30;40438;52.992;18.604;2023-06-14T10:52:27;23.16;50.37
54540;SHT30;40438;52.992;18.604;2023-06-14T10:55:14;22.95;50.81
54540;SHT30;40438;52.992;18.604;2023-06-14T10:57:41;22.92;51.67
54540;SHT30;40438;52.992;18.604;2023-06-14T11:00:10;23.00;52.09
54540;SHT30;40438;52.992;18.604;2023-06-14T11:02:49;23.06;49.27
54540;SHT30;40438;52.992;18.604;2023-06-14T11:05:23;23.23;48.90
54540;SHT30;40438;52.992;18.604;2023-06-14T11:07:52;23.45;47.80
54540;SHT30;40438;52.992;18.604;2023-06-14T11:10:28;23.64;47.45
54540;SHT30;40438;52.992;18.604;2023-06-14T11:12:59;23.78;47.04
54540;SHT30;40438;52.992;18.604;2023-06-14T11:15:29;23.81;45.48
54540;SHT30;40438;52.992;18.604;2023-06-14T11:17:55;23.63;44.42
54540;SHT30;40438;52.992;18.604;2023-06-14T11:20:25;23.40;42.69
54540;SHT30;40438;52.992;18.604;2023-06-14T11:22:51;23.19;42.08
54540;SHT30;40438;52.992;18.604;2023-06-14T11:25:17;22.99;42.46
54540;SHT30;40438;52.992;18.604;2023-06-14T11:27:43;23.00;44.56
54540;SHT30;40438;52.992;18.604;2023-06-14T11:30:11;22.99;45.99
54540;SHT30;40438;52.992;18.604;2023-06-14T11:32:39;23.00;46.84
54540;SHT30;40438;52.992;18.604;2023-06-14T11:35:05;23.18;45.93
54540;SHT30;40438;52.992;18.604;2023-06-14T11:37:31;23.53;46.31
54540;SHT30;40438;52.992;18.604;2023-06-14T11:39:57;23.88;45.77
54540;SHT30;40438;52.992;18.604;2023-06-14T11:42:24;24.25;45.31
54540;SHT30;40438;52.992;18.604;2023-06-14T11:44:53;24.53;44.39
54540;SHT30;40438;52.992;18.604;2023-06-14T11:47:19;24.67;43.94
54540;SHT30;40438;52.992;18.604;2023-06-14T11:49:46;24.62;43.20
54540;SHT30;40438;52.992;18.604;2023-06-14T11:52:12;24.49;43.54
54540;SHT30;40438;52.992;18.604;2023-06-14T11:54:38;24.43;44.16
54540;SHT30;40438;52.992;18.604;2023-06-14T11:57:04;24.35;44.36
54540;SHT30;40438;52.992;18.604;2023-06-14T11:59:31;24.29;44.00
54540;SHT30;40438;52.992;18.604;2023-06-14T12:01:57;24.18;44.11
54540;SHT30;40438;52.992;18.604;2023-06-14T12:04:27;24.08;44.55
54540;SHT30;40438;52.992;18.604;2023-06-14T12:06:54;24.00;45.01
54540;SHT30;40438;52.992;18.604;2023-06-14T12:09:20;23.88;45.39
54540;SHT30;40438;52.992;18.604;2023-06-14T12:11:46;23.68;45.59
54540;SHT30;40438;52.992;18.604;2023-06-14T12:14:11;23.57;46.23
54540;SHT30;40438;52.992;18.604;2023-06-14T12:16:38;23.37;46.19
54540;SHT30;40438;52.992;18.604;2023-06-14T12:19:12;23.26;46.54
54540;SHT30;40438;52.992;18.604;2023-06-14T12:21:39;23.11;46.69
54540;SHT30;40438;52.992;18.604;2023-06-14T12:24:07;22.96;47.14
54540;SHT30;40438;52.992;18.604;2023-06-14T12:26:33;22.82;47.38
54540;SHT30;40438;52.992;18.604;2023-06-14T12:28:59;22.72;47.97
54540;SHT30;40438;52.992;18.604;2023-06-14T12:31:25;22.57;48.24
54540;SHT30;40438;52.992;18.604;2023-06-14T12:33:50;22.43;47.34
54540;SHT30;40438;52.992;18.604;2023-06-14T12:36:16;22.34;48.02
54540;SHT30;40438;52.992;18.604;2023-06-14T12:38:42;22.34;48.88
54540;SHT30;40438;52.992;18.604;2023-06-14T12:41:09;22.30;48.66
54540;SHT30;40438;52.992;18.604;2023-06-14T12:43:35;22.30;49.05
54540;SHT30;40438;52.992;18.604;2023-06-14T12:46:01;22.31;49.85
54540;SHT30;40438;52.992;18.604;2023-06-14T12:48:27;22.36;49.82
54540;SHT30;40438;52.992;18.604;2023-06-14T12:50:52;22.40;48.56
54540;SHT30;40438;52.992;18.604;2023-06-14T12:53:18;22.41;46.99
54540;SHT30;40438;52.992;18.604;2023-06-14T12:55:44;22.45;46.43
54540;SHT30;40438;52.992;18.604;2023-06-14T12:58:11;22.53;46.18
54540;SHT30;40438;52.992;18.604;2023-06-14T13:00:37;22.61;46.15
54540;SHT30;40438;52.992;18.604;2023-06-14T13:03:03;22.74;46.16
54540;SHT30;40438;52.992;18.604;2023-06-14T13:05:29;22.79;46.16
54540;SHT30;40438;52.992;18.604;2023-06-14T13:07:55;22.85;46.49
54540;SHT30;40438;52.992;18.604;2023-06-14T13:10:20;22.82;45.88
54540;SHT30;40438;52.992;18.604;2023-06-14T13:12:46;22.77;44.83
54540;SHT30;40438;52.992;18.604;2023-06-14T13:15:13;22.65;43.50
54540;SHT30;40438;52.992;18.604;2023-06-14T13:17:39;22.58;43.31
54540;SHT30;40438;52.992;18.604;2023-06-14T13:20:05;22.53;43.38
54540;SHT30;40438;52.992;18.604;2023-06-14T13:22:31;22.43;45.37
54540;SHT30;40438;52.992;18.604;2023-06-14T13:24:57;22.29;45.19
54540;SHT30;40438;52.992;18.604;2023-06-14T13:27:23;22.21;44.28
54540;SHT30;40438;52.992;18.604;2023-06-14T13:29:49;22.10;43.43
54540;SHT30;40438;52.992;18.604;2023-06-14T13:32:16;22.14;43.20
54540;SHT30;40438;52.992;18.604;2023-06-14T13:34:42;22.10;42.94
54540;SHT30;40438;52.992;18.604;2023-06-14T13:37:08;22.09;43.12
54540;SHT30;40438;52.992;18.604;2023-06-14T13:39:33;22.05;42.87
54540;SHT30;40438;52.992;18.604;2023-06-14T13:41:59;22.03;42.68
54540;SHT30;40438;52.992;18.604;2023-06-14T13:44:25;21.96;42.52
54540;SHT30;40438;52.992;18.604;2023-06-14T13:46:51;21.90;42.71
54540;SHT30;40438;52.992;18.604;2023-06-14T13:49:18;21.92;42.53
54540;SHT30;40438;52.992;18.604;2023-06-14T13:51:44;21.85;42.42
54540;SHT30;40438;52.992;18.604;2023-06-14T13:54:12;21.82;42.99
54540;SHT30;40438;52.992;18.604;2023-06-14T13:56:38;21.78;43.20
54540;SHT30;40438;52.992;18.604;2023-06-14T13:59:04;21.78;43.85
54540;SHT30;40438;52.992;18.604;2023-06-14T14:01:29;21.71;44.34
54540;SHT30;40438;52.992;18.604;2023-06-14T14:03:55;21.66;44.12
54540;SHT30;40438;52.992;18.604;2023-06-14T14:06:23;21.61;44.29
54540;SHT30;40438;52.992;18.604;2023-06-14T14:08:48;21.52;44.16
54540;SHT30;40438;52.992;18.604;2023-06-14T14:11:14;21.48;44.76
54540;SHT30;40438;52.992;18.604;2023-06-14T14:13:40;21.51;45.39
54540;SHT30;40438;52.992;18.604;2023-06-14T14:16:06;21.48;47.01
54540;SHT30;40438;52.992;18.604;2023-06-14T14:18:32;21.49;47.71
54540;SHT30;40438;52.992;18.604;2023-06-14T14:20:58;21.45;47.49
54540;SHT30;40438;52.992;18.604;2023-06-14T14:23:25;21.49;47.65
54540;SHT30;40438;52.992;18.604;2023-06-14T14:25:51;21.47;47.68
54540;SHT30;40438;52.992;18.604;2023-06-14T14:28:17;21.45;48.52
54540;SHT30;40438;52.992;18.604;2023-06-14T14:30:43;21.41;49.37
54540;SHT30;40438;52.992;18.604;2023-06-14T14:33:09;21.34;51.10
54540;SHT30;40438;52.992;18.604;2023-06-14T14:35:34;21.20;50.81
54540;SHT30;40438;52.992;18.604;2023-06-14T14:38:00;21.11;51.00
54540;SHT30;40438;52.992;18.604;2023-06-14T14:40:27;21.04;51.49
54540;SHT30;40438;52.992;18.604;2023-06-14T14:42:53;20.99;52.38
54540;SHT30;40438;52.992;18.604;2023-06-14T14:45:19;20.86;53.09
54540;SHT30;40438;52.992;18.604;2023-06-14T14:47:45;20.77;54.64
54540;SHT30;40438;52.992;18.604;2023-06-14T14:50:10;20.69;55.30
54540;SHT30;40438;52.992;18.604;2023-06-14T14:52:36;20.56;56.56
54540;SHT30;40438;52.992;18.604;2023-06-14T14:55:02;20.42;57.13
54540;SHT30;40438;52.992;18.604;2023-06-14T14:57:29;20.32;58.07
54540;SHT30;40438;52.992;18.604;2023-06-14T14:59:55;20.17;58.72
54540;SHT30;40438;52.992;18.604;2023-06-14T15:02:21;20.07;59.62
54540;SHT30;40438;52.992;18.604;2023-06-14T15:04:47;20.00;59.95
54540;SHT30;40438;52.992;18.604;2023-06-14T15:07:13;19.90;60.56
54540;SHT30;40438;52.992;18.604;2023-06-14T15:09:38;19.87;60.99
54540;SHT30;40438;52.992;18.604;2023-06-14T15:12:05;19.83;61.82